Time;durP1;ratioP1;P1;durP2;ratioP2;P2;SDS_P1;SDS_P2;PMS_P1;PMS_P2;Temp;Humidity;BMP_temperature;BMP_pressure;BME280_temperature;BME280_humidity;BME280_pressure;Samples;Min_cycle;Max_cycle;Signal;HPM_P1;HPM_P2
2021/04/17 00:00:16;;;;;;;11.57;7.20;;;;;;;;;;5078904;28;20024;-66
2021/04/17 00:02:42;;;;;;;10.57;7.63;;;;;;;;;;5103871;28;20031;-66
2021/04/17 00:05:08;;;;;;;35.42;18.98;;;;;;;;;;5111295;28;20043;-66
2021/04/17 00:07:35;;;;;;;23.08;13.32;;;;;;;;;;5107775;28;20492;-66
2021/04/17 00:10:01;;;;;;;21.30;13.13;;;;;;;;;;5102832;28;20035;-65
2021/04/17 00:12:27;;;;;;;24.48;11.98;;;;;;;;;;5096195;28;20020;-66
2021/04/17 00:14:53;;;;;;;14.30;10.88;;;;;;;;;;5095630;28;20024;-66
2021/04/17 00:17:20;;;;;;;16.85;12.73;;;;;;;;;;5115968;28;20020;-64
2021/04/17 00:19:48;;;;;;;14.20;8.43;;;;;;;;;;5102745;28;20032;-66
2021/04/17 00:22:14;;;;;;;11.60;7.72;;;;;;;;;;5112416;28;20551;-67
2021/04/17 00:24:40;;;;;;;10.07;7.85;;;;;;;;;;5098058;28;20028;-66
2021/04/17 00:27:07;;;;;;;10.77;6.78;;;;;;;;;;5110897;28;20099;-66
2021/04/17 00:29:34;;;;;;;10.63;7.00;;;;;;;;;;5100071;28;20024;-66
2021/04/17 00:32:01;;;;;;;11.77;7.18;;;;;;;;;;5102698;28;20068;-66
2021/04/17 00:34:27;;;;;;;9.60;6.55;;;;;;;;;;5097638;28;20032;-65
2021/04/17 00:36:53;;;;;;;10.55;7.13;;;;;;;;;;5111489;28;20447;-66
2021/04/17 00:39:19;;;;;;;11.45;6.18;;;;;;;;;;5108592;28;20024;-66
2021/04/17 00:41:45;;;;;;;9.30;6.38;;;;;;;;;;5105501;28;20486;-66
2021/04/17 00:44:12;;;;;;;10.40;6.22;;;;;;;;;;5091798;28;20486;-64
2021/04/17 00:46:38;;;;;;;8.85;6.20;;;;;;;;;;5110125;28;20099;-66
2021/04/17 00:49:05;;;;;;;11.75;5.63;;;;;;;;;;5110724;28;20245;-66
2021/04/17 00:51:31;;;;;;;12.65;6.97;;;;;;;;;;5095062;28;20023;-66
2021/04/17 00:53:57;;;;;;;8.07;6.00;;;;;;;;;;5093411;28;20030;-65
2021/04/17 00:56:23;;;;;;;6.93;5.65;;;;;;;;;;5108447;28;20190;-66
2021/04/17 00:58:50;;;;;;;13.23;6.68;;;;;;;;;;5103911;28;20060;-66
2021/04/17 01:01:16;;;;;;;10.05;6.30;;;;;;;;;;5094617;28;20095;-72
2021/04/17 01:03:53;;;;;;;10.77;6.38;;;;;;;;;;5081912;28;20052;-68
2021/04/17 01:06:33;;;;;;;8.45;5.47;;;;;;;;;;5102124;28;20055;-65
2021/04/17 01:09:21;;;;;;;7.55;5.57;;;;;;;;;;5096423;28;20028;-65
2021/04/17 01:11:59;;;;;;;10.25;6.28;;;;;;;;;;5114445;28;20024;-66
2021/04/17 01:14:27;;;;;;;8.52;6.28;;;;;;;;;;5112696;28;20102;-66
2021/04/17 01:16:55;;;;;;;10.73;6.30;;;;;;;;;;5103777;28;20487;-66
2021/04/17 01:19:44;;;;;;;8.32;6.38;;;;;;;;;;5102205;28;20031;-66
2021/04/17 01:22:11;;;;;;;11.40;7.93;;;;;;;;;;5059319;28;20070;-67
2021/04/17 01:24:39;;;;;;;10.35;7.18;;;;;;;;;;5110140;28;20027;-66
2021/04/17 01:27:06;;;;;;;12.38;7.15;;;;;;;;;;5096530;28;20032;-66
2021/04/17 01:29:35;;;;;;;9.65;6.63;;;;;;;;;;5106200;28;20030;-67
2021/04/17 01:32:02;;;;;;;12.68;6.63;;;;;;;;;;5106684;28;20027;-66
2021/04/17 01:34:28;;;;;;;9.25;6.75;;;;;;;;;;5100772;28;20098;-67
2021/04/17 01:36:55;;;;;;;9.10;6.03;;;;;;;;;;5104219;28;20023;-66
2021/04/17 01:39:25;;;;;;;9.25;6.55;;;;;;;;;;5113970;28;20031;-66
2021/04/17 01:41:57;;;;;;;10.68;6.03;;;;;;;;;;5108449;28;20020;-66
2021/04/17 01:44:25;;;;;;;7.78;6.35;;;;;;;;;;5099758;28;20035;-66
2021/04/17 01:46:54;;;;;;;10.43;6.10;;;;;;;;;;5107823;28;20031;-65
2021/04/17 01:49:21;;;;;;;8.05;5.80;;;;;;;;;;5106954;28;20031;-67
2021/04/17 01:51:47;;;;;;;8.60;6.07;;;;;;;;;;5111320;28;20024;-66
2021/04/17 01:54:18;;;;;;;10.20;5.78;;;;;;;;;;5093801;28;20020;-66
2021/04/17 01:56:47;;;;;;;7.22;5.85;;;;;;;;;;5094077;28;20627;-67
2021/04/17 01:59:15;;;;;;;7.95;5.68;;;;;;;;;;5112014;28;20084;-65
2021/04/17 02:01:41;;;;;;;8.02;5.68;;;;;;;;;;5113146;28;20023;-65
2021/04/17 02:04:08;;;;;;;9.68;5.78;;;;;;;;;;5089691;28;20067;-66
2021/04/17 02:06:34;;;;;;;8.93;6.20;;;;;;;;;;5104830;28;20107;-65
2021/04/17 02:09:00;;;;;;;7.97;5.38;;;;;;;;;;5096947;28;20020;-67
2021/04/17 02:11:26;;;;;;;8.95;5.90;;;;;;;;;;5109401;28;20035;-66
2021/04/17 02:13:53;;;;;;;9.25;5.63;;;;;;;;;;5103996;28;20058;-65
2021/04/17 02:16:22;;;;;;;6.95;5.28;;;;;;;;;;5103035;28;20055;-66
2021/04/17 02:18:51;;;;;;;9.23;5.65;;;;;;;;;;5111973;28;20089;-67
2021/04/17 02:21:20;;;;;;;8.35;5.75;;;;;;;;;;5093266;28;20031;-66
2021/04/17 02:23:47;;;;;;;9.88;6.18;;;;;;;;;;5095313;28;20385;-66
2021/04/17 02:26:13;;;;;;;7.53;5.15;;;;;;;;;;5092716;28;20032;-66
2021/04/17 02:28:39;;;;;;;8.63;5.05;;;;;;;;;;5097825;28;20028;-71
2021/04/17 02:31:05;;;;;;;20.38;5.90;;;;;;;;;;5074384;28;20016;-65
2021/04/17 02:33:31;;;;;;;7.50;5.15;;;;;;;;;;5094489;28;20526;-67
2021/04/17 02:35:57;;;;;;;7.57;5.10;;;;;;;;;;5107067;28;20031;-65
2021/04/17 02:38:24;;;;;;;10.18;4.55;;;;;;;;;;5113123;28;20024;-66
2021/04/17 02:40:50;;;;;;;7.30;4.43;;;;;;;;;;5107803;28;20024;-66
2021/04/17 02:43:16;;;;;;;6.95;4.45;;;;;;;;;;5112938;28;20027;-67
2021/04/17 02:45:42;;;;;;;7.47;4.55;;;;;;;;;;5100597;28;20025;-66
2021/04/17 02:48:08;;;;;;;5.70;4.38;;;;;;;;;;5112824;28;20023;-66
2021/04/17 02:50:34;;;;;;;7.65;4.90;;;;;;;;;;5104691;28;20382;-66
2021/04/17 02:53:00;;;;;;;6.85;4.22;;;;;;;;;;5104584;28;20027;-65
2021/04/17 02:55:27;;;;;;;7.55;4.20;;;;;;;;;;5094487;28;20486;-66
2021/04/17 02:57:53;;;;;;;7.15;5.30;;;;;;;;;;5106338;28;20048;-65
2021/04/17 03:00:22;;;;;;;6.15;5.15;;;;;;;;;;5106485;28;20023;-63
2021/04/17 03:02:49;;;;;;;9.90;4.28;;;;;;;;;;5107269;28;20020;-66
2021/04/17 03:05:15;;;;;;;8.20;4.20;;;;;;;;;;5096263;28;20044;-65
2021/04/17 03:07:41;;;;;;;6.75;4.00;;;;;;;;;;5104031;28;20100;-65
2021/04/17 03:10:08;;;;;;;6.00;4.32;;;;;;;;;;5091699;28;20039;-66
2021/04/17 03:12:35;;;;;;;5.70;4.15;;;;;;;;;;5096456;28;20024;-66
2021/04/17 03:15:02;;;;;;;9.57;4.00;;;;;;;;;;5103374;28;20107;-65
2021/04/17 03:17:28;;;;;;;7.40;4.82;;;;;;;;;;5096310;28;20035;-66
2021/04/17 03:19:54;;;;;;;6.90;4.07;;;;;;;;;;5099775;28;20047;-65
2021/04/17 03:22:20;;;;;;;5.35;4.03;;;;;;;;;;5102645;28;20385;-65
2021/04/17 03:24:46;;;;;;;4.97;3.90;;;;;;;;;;5114819;28;20023;-65
2021/04/17 03:27:12;;;;;;;6.43;4.10;;;;;;;;;;5099310;28;20016;-66
2021/04/17 03:29:38;;;;;;;4.93;3.80;;;;;;;;;;5111490;28;20030;-66
2021/04/17 03:32:05;;;;;;;4.82;4.32;;;;;;;;;;5114678;28;20552;-66
2021/04/17 03:34:31;;;;;;;6.68;3.80;;;;;;;;;;5100569;28;20035;-66
2021/04/17 03:36:57;;;;;;;4.38;3.47;;;;;;;;;;5103948;28;20036;-65
2021/04/17 03:39:23;;;;;;;8.15;4.65;;;;;;;;;;5113739;28;20027;-66
2021/04/17 03:41:50;;;;;;;5.30;3.80;;;;;;;;;;5105624;28;20028;-66
2021/04/17 03:44:16;;;;;;;7.85;4.00;;;;;;;;;;5100319;28;20106;-67
2021/04/17 03:46:42;;;;;;;5.93;3.75;;;;;;;;;;5114013;28;20034;-65
2021/04/17 03:49:08;;;;;;;5.63;3.58;;;;;;;;;;5115341;28;20508;-66
2021/04/17 03:51:34;;;;;;;5.47;3.90;;;;;;;;;;5115525;28;20024;-67
2021/04/17 03:54:00;;;;;;;7.18;3.38;;;;;;;;;;5106299;28;20030;-66
2021/04/17 03:56:27;;;;;;;5.85;3.83;;;;;;;;;;5109885;28;20537;-66
2021/04/17 03:58:53;;;;;;;6.07;4.43;;;;;;;;;;5105091;28;20023;-66
2021/04/17 04:01:19;;;;;;;8.35;3.88;;;;;;;;;;5116070;28;20028;-66
2021/04/17 04:03:45;;;;;;;4.07;3.60;;;;;;;;;;5096305;28;20127;-66
2021/04/17 04:06:11;;;;;;;5.57;3.42;;;;;;;;;;5097795;28;20394;-64
2021/04/17 04:08:37;;;;;;;5.55;3.80;;;;;;;;;;5113935;28;20023;-65
2021/04/17 04:11:03;;;;;;;5.30;3.60;;;;;;;;;;5114206;28;20026;-65
2021/04/17 04:13:29;;;;;;;9.48;4.20;;;;;;;;;;5099993;28;20587;-65
2021/04/17 04:15:55;;;;;;;4.85;3.83;;;;;;;;;;5102544;28;20077;-66
2021/04/17 04:18:21;;;;;;;7.55;3.70;;;;;;;;;;5109592;28;20020;-66
2021/04/17 04:20:47;;;;;;;5.40;3.63;;;;;;;;;;5100144;28;20401;-66
2021/04/17 04:23:13;;;;;;;6.57;3.90;;;;;;;;;;5113902;28;20028;-66
2021/04/17 04:25:39;;;;;;;6.72;4.28;;;;;;;;;;5101803;28;20035;-66
2021/04/17 04:28:05;;;;;;;7.32;4.45;;;;;;;;;;5102279;28;20020;-66
2021/04/17 04:30:32;;;;;;;6.78;4.20;;;;;;;;;;5096031;28;20489;-65
2021/04/17 04:32:58;;;;;;;5.63;4.10;;;;;;;;;;5101633;28;20509;-66
2021/04/17 04:35:24;;;;;;;5.07;4.03;;;;;;;;;;5113070;28;20032;-64
2021/04/17 04:37:50;;;;;;;5.63;4.35;;;;;;;;;;5108162;28;20024;-64
2021/04/17 04:40:16;;;;;;;7.15;4.20;;;;;;;;;;5114718;28;20039;-65
2021/04/17 04:42:42;;;;;;;6.15;3.80;;;;;;;;;;5094389;28;20025;-65
2021/04/17 04:45:09;;;;;;;5.68;4.25;;;;;;;;;;5100393;28;20081;-66
2021/04/17 04:47:35;;;;;;;5.90;3.65;;;;;;;;;;5096030;28;20042;-65
2021/04/17 04:50:01;;;;;;;5.35;4.07;;;;;;;;;;5107024;28;20449;-66
2021/04/17 04:52:27;;;;;;;4.80;3.78;;;;;;;;;;5113101;28;20024;-66
2021/04/17 04:54:53;;;;;;;10.13;4.28;;;;;;;;;;5110032;28;20024;-66
2021/04/17 04:57:19;;;;;;;6.20;4.97;;;;;;;;;;5098684;28;20028;-66
2021/04/17 04:59:45;;;;;;;5.03;3.78;;;;;;;;;;5114712;28;20435;-66
2021/04/17 05:02:12;;;;;;;6.63;4.53;;;;;;;;;;5105837;28;20031;-65
2021/04/17 05:04:38;;;;;;;7.00;3.83;;;;;;;;;;5093935;28;20054;-66
2021/04/17 05:07:04;;;;;;;9.90;4.15;;;;;;;;;;5098095;28;20150;-67
2021/04/17 05:09:30;;;;;;;7.72;5.30;;;;;;;;;;5099868;28;20032;-66
2021/04/17 05:11:56;;;;;;;6.15;4.50;;;;;;;;;;5075880;28;20372;-66
2021/04/17 05:14:22;;;;;;;8.25;4.40;;;;;;;;;;5100378;28;20024;-65
2021/04/17 05:16:48;;;;;;;6.80;4.57;;;;;;;;;;5082474;28;20024;-65
2021/04/17 05:19:14;;;;;;;6.38;4.25;;;;;;;;;;5098074;28;20436;-66
2021/04/17 05:21:41;;;;;;;5.32;4.70;;;;;;;;;;5105001;28;20031;-66
2021/04/17 05:24:08;;;;;;;7.28;4.53;;;;;;;;;;5108207;28;20016;-66
2021/04/17 05:26:34;;;;;;;6.15;4.85;;;;;;;;;;5101150;28;20043;-66
2021/04/17 05:29:00;;;;;;;5.35;4.50;;;;;;;;;;5088151;28;20016;-66
2021/04/17 05:31:26;;;;;;;7.40;4.70;;;;;;;;;;5107524;28;20031;-66
2021/04/17 05:33:54;;;;;;;5.88;4.93;;;;;;;;;;5102565;28;20088;-66
2021/04/17 05:36:21;;;;;;;6.78;4.53;;;;;;;;;;5081076;28;20512;-67
2021/04/17 05:38:47;;;;;;;9.00;5.63;;;;;;;;;;5093361;28;20024;-65
2021/04/17 05:41:13;;;;;;;12.05;6.25;;;;;;;;;;5105668;28;20027;-66
2021/04/17 05:43:39;;;;;;;7.05;4.85;;;;;;;;;;5102404;28;20498;-66
2021/04/17 05:46:05;;;;;;;9.15;4.82;;;;;;;;;;5099164;28;20054;-66
2021/04/17 05:48:31;;;;;;;6.20;4.95;;;;;;;;;;5102626;28;20020;-64
2021/04/17 05:50:58;;;;;;;6.00;4.80;;;;;;;;;;5111612;28;20051;-65
2021/04/17 05:53:25;;;;;;;6.68;4.85;;;;;;;;;;5100342;28;20095;-66
2021/04/17 05:55:51;;;;;;;8.25;5.10;;;;;;;;;;5105109;28;20426;-65
2021/04/17 05:58:17;;;;;;;6.70;4.75;;;;;;;;;;5106203;28;20035;-65
2021/04/17 06:00:43;;;;;;;9.02;5.05;;;;;;;;;;5106732;28;20377;-67
2021/04/17 06:03:09;;;;;;;9.88;5.20;;;;;;;;;;5099043;28;20032;-65
2021/04/17 06:05:35;;;;;;;6.57;4.80;;;;;;;;;;5110978;28;20042;-67
2021/04/17 06:08:01;;;;;;;9.15;5.22;;;;;;;;;;5113070;28;20029;-65
2021/04/17 06:10:27;;;;;;;6.03;5.00;;;;;;;;;;5095307;28;20086;-66
2021/04/17 06:12:53;;;;;;;7.40;5.78;;;;;;;;;;5095311;28;20012;-65
2021/04/17 06:15:19;;;;;;;10.35;5.05;;;;;;;;;;5105492;28;20024;-66
2021/04/17 06:17:45;;;;;;;9.57;4.90;;;;;;;;;;5092731;28;20034;-66
2021/04/17 06:20:12;;;;;;;7.05;4.80;;;;;;;;;;5106678;28;20053;-66
2021/04/17 06:22:38;;;;;;;9.50;5.57;;;;;;;;;;5087669;28;20497;-66
2021/04/17 06:25:08;;;;;;;8.13;4.82;;;;;;;;;;5094190;28;20016;-66
2021/04/17 06:27:34;;;;;;;7.53;5.05;;;;;;;;;;5108755;28;20023;-66
2021/04/17 06:30:00;;;;;;;5.88;5.22;;;;;;;;;;5092906;28;20016;-66
2021/04/17 06:32:26;;;;;;;6.25;4.85;;;;;;;;;;5099867;28;20380;-66
2021/04/17 06:34:52;;;;;;;7.88;4.80;;;;;;;;;;5106026;28;20031;-66
2021/04/17 06:37:19;;;;;;;6.43;5.30;;;;;;;;;;5098083;28;20616;-67
2021/04/17 06:39:45;;;;;;;7.50;4.97;;;;;;;;;;5092956;28;20036;-66
2021/04/17 06:42:12;;;;;;;8.68;4.80;;;;;;;;;;5098267;28;20390;-65
2021/04/17 06:44:42;;;;;;;7.15;4.80;;;;;;;;;;5104420;28;20024;-67
2021/04/17 06:47:13;;;;;;;8.45;5.22;;;;;;;;;;5098496;28;20020;-67
2021/04/17 06:49:39;;;;;;;6.38;4.72;;;;;;;;;;5102157;28;20030;-66
2021/04/17 06:52:07;;;;;;;7.00;4.75;;;;;;;;;;5103743;28;20043;-66
2021/04/17 06:54:33;;;;;;;7.00;4.88;;;;;;;;;;5105837;28;20028;-65
2021/04/17 06:56:59;;;;;;;6.35;4.80;;;;;;;;;;5084168;28;20403;-65
2021/04/17 06:59:25;;;;;;;8.95;4.75;;;;;;;;;;5110688;28;20063;-66
2021/04/17 07:01:51;;;;;;;6.80;4.43;;;;;;;;;;5105047;28;20020;-65
2021/04/17 07:04:17;;;;;;;5.55;3.78;;;;;;;;;;5089991;28;20052;-66
2021/04/17 07:06:43;;;;;;;5.75;4.18;;;;;;;;;;5090204;28;20024;-65
2021/04/17 07:09:10;;;;;;;6.90;5.28;;;;;;;;;;5095937;28;20065;-65
2021/04/17 07:11:36;;;;;;;8.00;4.30;;;;;;;;;;5088027;28;20020;-65
2021/04/17 07:14:06;;;;;;;6.55;3.63;;;;;;;;;;5096958;28;20020;-67
2021/04/17 07:16:32;;;;;;;6.22;4.20;;;;;;;;;;5101434;28;20032;-66
2021/04/17 07:18:58;;;;;;;5.95;4.10;;;;;;;;;;5105020;28;20031;-66
2021/04/17 07:21:27;;;;;;;6.22;3.65;;;;;;;;;;5097136;28;20073;-67
2021/04/17 07:23:53;;;;;;;4.60;3.80;;;;;;;;;;5106794;28;20107;-66
2021/04/17 07:26:20;;;;;;;6.35;3.90;;;;;;;;;;5097532;28;20050;-65
2021/04/17 07:28:55;;;;;;;5.65;4.10;;;;;;;;;;5094429;28;20024;-67
2021/04/17 07:31:22;;;;;;;7.38;4.20;;;;;;;;;;5096073;28;20054;-66
2021/04/17 07:33:49;;;;;;;4.22;3.58;;;;;;;;;;5103478;28;20028;-65
2021/04/17 07:36:16;;;;;;;5.22;3.83;;;;;;;;;;5094063;28;20032;-65
2021/04/17 07:38:42;;;;;;;5.60;4.15;;;;;;;;;;5092496;28;20100;-66
2021/04/17 07:41:16;;;;;;;4.15;3.55;;;;;;;;;;5102648;28;20034;-67
2021/04/17 07:43:44;;;;;;;3.97;3.58;;;;;;;;;;5107503;28;20038;-67
2021/04/17 07:46:11;;;;;;;7.05;4.18;;;;;;;;;;5106690;28;20470;-67
2021/04/17 07:48:37;;;;;;;5.32;3.67;;;;;;;;;;5113299;28;20401;-66
2021/04/17 07:51:06;;;;;;;7.30;3.75;;;;;;;;;;5105764;28;20042;-66
2021/04/17 07:53:37;;;;;;;4.90;3.88;;;;;;;;;;5104791;28;20032;-72
2021/04/17 07:56:22;;;;;;;3.67;3.10;;;;;;;;;;5099420;28;20032;-66
2021/04/17 07:58:48;;;;;;;3.15;2.83;;;;;;;;;;5106041;28;20027;-69
2021/04/17 08:01:19;;;;;;;4.70;3.22;;;;;;;;;;5096299;28;20042;-66
2021/04/17 08:03:46;;;;;;;13.80;2.65;;;;;;;;;;5095489;28;20074;-69
2021/04/17 08:06:16;;;;;;;2.65;2.38;;;;;;;;;;5095219;28;20032;-67
2021/04/17 08:08:42;;;;;;;3.55;2.63;;;;;;;;;;5112000;28;20378;-66
2021/04/17 08:11:09;;;;;;;6.15;2.40;;;;;;;;;;5094255;28;20024;-66
2021/04/17 08:13:38;;;;;;;3.33;1.98;;;;;;;;;;5095395;28;20032;-67
2021/04/17 08:16:05;;;;;;;4.35;2.60;;;;;;;;;;5099162;28;20055;-66
2021/04/17 08:18:31;;;;;;;7.22;2.33;;;;;;;;;;5101201;28;20063;-67
2021/04/17 08:20:59;;;;;;;5.03;2.50;;;;;;;;;;5099338;28;20024;-67
2021/04/17 08:23:26;;;;;;;6.95;2.67;;;;;;;;;;5100683;28;20024;-66
2021/04/17 08:25:54;;;;;;;3.58;2.03;;;;;;;;;;5103587;28;20035;-66
2021/04/17 08:28:21;;;;;;;3.97;2.72;;;;;;;;;;5099319;28;20024;-66
2021/04/17 08:30:47;;;;;;;4.90;2.95;;;;;;;;;;5100099;28;20109;-67
2021/04/17 08:33:14;;;;;;;3.05;2.28;;;;;;;;;;5108047;28;20020;-66
2021/04/17 08:35:41;;;;;;;2.97;2.47;;;;;;;;;;5097338;28;20539;-67
2021/04/17 08:38:09;;;;;;;2.78;2.30;;;;;;;;;;5109968;28;20501;-67
2021/04/17 08:40:38;;;;;;;5.15;2.67;;;;;;;;;;5112294;28;20389;-66
2021/04/17 08:43:10;;;;;;;6.03;2.70;;;;;;;;;;5101095;28;20027;-71
2021/04/17 08:45:37;;;;;;;3.28;2.22;;;;;;;;;;5096904;28;20485;-67
2021/04/17 08:48:04;;;;;;;4.05;2.40;;;;;;;;;;5103552;28;20019;-66
2021/04/17 08:50:30;;;;;;;5.60;2.58;;;;;;;;;;5098818;28;20021;-67
2021/04/17 08:52:57;;;;;;;2.90;2.28;;;;;;;;;;5094596;28;20037;-66
2021/04/17 08:55:24;;;;;;;3.55;2.47;;;;;;;;;;5100428;28;20023;-64
2021/04/17 08:58:09;;;;;;;3.35;2.63;;;;;;;;;;5091122;28;20027;-68
2021/04/17 09:00:35;;;;;;;4.78;2.78;;;;;;;;;;5103920;28;20506;-65
2021/04/17 09:03:01;;;;;;;4.22;2.55;;;;;;;;;;5095319;28;20063;-64
2021/04/17 09:05:41;;;;;;;3.25;2.65;;;;;;;;;;5102269;28;20801;-66
2021/04/17 09:08:12;;;;;;;3.72;2.60;;;;;;;;;;5099845;28;20389;-66
2021/04/17 09:10:39;;;;;;;2.90;2.30;;;;;;;;;;5098451;28;20016;-66
2021/04/17 09:13:12;;;;;;;5.47;2.55;;;;;;;;;;5097306;28;20027;-65
2021/04/17 09:15:51;;;;;;;4.07;2.58;;;;;;;;;;5096829;28;20031;-65
2021/04/17 09:18:32;;;;;;;3.05;2.20;;;;;;;;;;5096016;28;20028;-65
2021/04/17 09:21:18;;;;;;;3.70;2.30;;;;;;;;;;5092211;28;20032;-66
2021/04/17 09:23:46;;;;;;;5.45;2.50;;;;;;;;;;5097442;28;20036;-66
2021/04/17 09:26:31;;;;;;;3.78;2.50;;;;;;;;;;5093777;28;20582;-66
2021/04/17 09:29:01;;;;;;;7.53;2.75;;;;;;;;;;5094984;28;20020;-66
2021/04/17 09:31:27;;;;;;;6.65;2.65;;;;;;;;;;5093930;28;20016;-65
2021/04/17 09:34:00;;;;;;;4.43;2.38;;;;;;;;;;5094630;28;20028;-66
2021/04/17 09:36:26;;;;;;;4.30;2.33;;;;;;;;;;5097966;28;20055;-66
2021/04/17 09:38:52;;;;;;;2.63;2.30;;;;;;;;;;5091548;28;20035;-65
2021/04/17 09:41:18;;;;;;;3.85;2.38;;;;;;;;;;5091330;28;20089;-64
2021/04/17 09:43:53;;;;;;;3.40;2.47;;;;;;;;;;5093434;28;20036;-66
2021/04/17 09:46:19;;;;;;;4.00;2.50;;;;;;;;;;5106148;28;20041;-66
2021/04/17 09:48:46;;;;;;;4.00;2.63;;;;;;;;;;5097711;28;20609;-64
2021/04/17 09:51:25;;;;;;;6.20;2.60;;;;;;;;;;5103758;28;20131;-66
2021/04/17 09:53:52;;;;;;;4.68;2.53;;;;;;;;;;5091515;28;20035;-65
2021/04/17 09:56:28;;;;;;;3.05;2.63;;;;;;;;;;5097184;28;20038;-65
2021/04/17 09:58:56;;;;;;;4.80;2.90;;;;;;;;;;5101014;28;20093;-65
2021/04/17 10:01:22;;;;;;;4.30;2.55;;;;;;;;;;5101051;28;20110;-65
2021/04/17 10:03:52;;;;;;;3.33;2.55;;;;;;;;;;5099383;28;20638;-65
2021/04/17 10:06:25;;;;;;;4.97;3.53;;;;;;;;;;5110120;28;20023;-66
2021/04/17 10:08:52;;;;;;;6.10;3.13;;;;;;;;;;5104322;28;20038;-66
2021/04/17 10:11:20;;;;;;;10.13;3.58;;;;;;;;;;5106247;28;20031;-66
2021/04/17 10:13:47;;;;;;;6.65;3.50;;;;;;;;;;5101615;28;20027;-65
2021/04/17 10:16:14;;;;;;;4.32;2.92;;;;;;;;;;5081410;28;20489;-65
2021/04/17 10:18:43;;;;;;;5.43;3.17;;;;;;;;;;5109070;28;20031;-66
2021/04/17 10:21:10;;;;;;;6.93;3.30;;;;;;;;;;5101419;28;20114;-64
2021/04/17 10:23:36;;;;;;;5.78;3.08;;;;;;;;;;5102169;28;20024;-65
2021/04/17 10:26:04;;;;;;;4.82;3.25;;;;;;;;;;5092856;28;20465;-64
2021/04/17 10:28:31;;;;;;;3.65;3.03;;;;;;;;;;5102762;28;20023;-66
2021/04/17 10:30:58;;;;;;;4.95;3.17;;;;;;;;;;5097297;28;20031;-64
2021/04/17 10:33:25;;;;;;;5.85;3.00;;;;;;;;;;5079697;28;20055;-66
2021/04/17 10:35:53;;;;;;;5.47;3.25;;;;;;;;;;5104038;28;20077;-65
2021/04/17 10:38:23;;;;;;;3.80;3.15;;;;;;;;;;5090821;28;20450;-66
2021/04/17 10:40:49;;;;;;;4.55;3.17;;;;;;;;;;5104813;28;20036;-64
2021/04/17 10:43:16;;;;;;;8.50;3.08;;;;;;;;;;5100269;28;20088;-65
2021/04/17 10:45:43;;;;;;;4.13;3.00;;;;;;;;;;5096693;28;20035;-66
2021/04/17 10:48:14;;;;;;;3.78;3.20;;;;;;;;;;5097303;28;20121;-65
2021/04/17 10:50:45;;;;;;;4.07;3.00;;;;;;;;;;5081142;28;20034;-68
2021/04/17 10:53:15;;;;;;;4.90;3.08;;;;;;;;;;5095803;28;20038;-64
2021/04/17 10:55:48;;;;;;;4.55;3.03;;;;;;;;;;5096428;28;20052;-64
2021/04/17 10:58:21;;;;;;;3.67;2.95;;;;;;;;;;5102958;28;20038;-65
2021/04/17 11:00:49;;;;;;;4.53;2.80;;;;;;;;;;5092588;28;20055;-66
2021/04/17 11:03:15;;;;;;;4.30;2.85;;;;;;;;;;5092820;28;20456;-66
2021/04/17 11:05:41;;;;;;;5.85;3.38;;;;;;;;;;5099196;28;20031;-66
2021/04/17 11:08:07;;;;;;;5.15;3.95;;;;;;;;;;5093690;28;20062;-66
2021/04/17 11:10:38;;;;;;;4.32;3.20;;;;;;;;;;5093706;28;20042;-65
2021/04/17 11:13:05;;;;;;;6.78;3.00;;;;;;;;;;5101855;28;20039;-66
2021/04/17 11:15:31;;;;;;;5.50;3.38;;;;;;;;;;5099461;28;20036;-66
2021/04/17 11:18:16;;;;;;;4.20;3.05;;;;;;;;;;5091271;28;20036;-65
2021/04/17 11:20:48;;;;;;;4.80;3.45;;;;;;;;;;5090297;28;20036;-65
2021/04/17 11:23:29;;;;;;;4.20;3.50;;;;;;;;;;5095888;28;20135;-66
2021/04/17 11:25:55;;;;;;;6.53;3.70;;;;;;;;;;5096843;28;20067;-65
2021/04/17 11:28:21;;;;;;;5.72;3.58;;;;;;;;;;5102580;28;20032;-65
2021/04/17 11:30:50;;;;;;;3.53;3.15;;;;;;;;;;5104898;28;20031;-65
2021/04/17 11:33:16;;;;;;;5.85;3.28;;;;;;;;;;5100044;28;20024;-66
2021/04/17 11:35:42;;;;;;;4.30;3.50;;;;;;;;;;5097382;28;20566;-65
2021/04/17 11:38:08;;;;;;;4.13;3.03;;;;;;;;;;5099525;28;20031;-65
2021/04/17 11:40:34;;;;;;;4.60;2.97;;;;;;;;;;5098829;28;20024;-66
2021/04/17 11:43:00;;;;;;;4.88;3.60;;;;;;;;;;5094647;28;20124;-64
2021/04/17 11:45:26;;;;;;;4.28;3.30;;;;;;;;;;5102361;28;20031;-65
2021/04/17 11:47:52;;;;;;;5.25;3.33;;;;;;;;;;5098348;28;20020;-65
2021/04/17 11:50:18;;;;;;;6.40;3.33;;;;;;;;;;5100263;28;20056;-64
2021/04/17 11:52:44;;;;;;;5.25;3.53;;;;;;;;;;5102718;28;20428;-63
2021/04/17 11:55:11;;;;;;;4.65;3.42;;;;;;;;;;5103625;28;20028;-66
2021/04/17 11:57:37;;;;;;;3.38;3.05;;;;;;;;;;5089163;28;20024;-66
2021/04/17 12:00:06;;;;;;;5.82;3.25;;;;;;;;;;5097046;28;20032;-69
2021/04/17 12:02:32;;;;;;;33.63;11.70;;;;;;;;;;5102482;28;20758;-67
2021/04/17 12:04:59;;;;;;;6.15;3.65;;;;;;;;;;5100334;28;20096;-65
2021/04/17 12:07:25;;;;;;;4.32;3.58;;;;;;;;;;5110615;28;20032;-66
2021/04/17 12:09:55;;;;;;;4.13;3.47;;;;;;;;;;5101984;28;20561;-66
2021/04/17 12:12:21;;;;;;;5.68;3.60;;;;;;;;;;5098116;28;20028;-66
2021/04/17 12:14:47;;;;;;;6.45;3.58;;;;;;;;;;5101317;28;20032;-66
2021/04/17 12:17:13;;;;;;;4.97;4.13;;;;;;;;;;5107251;28;20130;-66
2021/04/17 12:19:39;;;;;;;7.00;3.70;;;;;;;;;;5106060;28;20391;-65
2021/04/17 12:22:05;;;;;;;5.88;4.35;;;;;;;;;;5102305;28;20043;-64
2021/04/17 12:24:31;;;;;;;5.40;3.60;;;;;;;;;;5109723;28;20035;-66
2021/04/17 12:26:58;;;;;;;5.05;3.65;;;;;;;;;;5095556;28;20051;-65
2021/04/17 12:29:24;;;;;;;5.47;3.67;;;;;;;;;;5096373;28;20103;-66
2021/04/17 12:31:50;;;;;;;5.05;3.83;;;;;;;;;;5099850;28;20027;-64
2021/04/17 12:34:16;;;;;;;6.28;5.13;;;;;;;;;;5108431;28;20038;-66
2021/04/17 12:36:42;;;;;;;6.25;3.85;;;;;;;;;;5109915;28;20028;-65
2021/04/17 12:39:08;;;;;;;4.13;3.65;;;;;;;;;;5109182;28;20035;-66
2021/04/17 12:41:34;;;;;;;6.60;4.13;;;;;;;;;;5098183;28;20031;-68
2021/04/17 12:44:01;;;;;;;7.18;3.92;;;;;;;;;;5101300;28;20031;-66
2021/04/17 12:46:27;;;;;;;7.18;4.45;;;;;;;;;;5099447;28;20093;-65
2021/04/17 12:48:53;;;;;;;7.15;4.63;;;;;;;;;;5098744;28;20039;-66
2021/04/17 12:51:19;;;;;;;6.25;4.18;;;;;;;;;;5096498;28;20526;-65
2021/04/17 12:53:45;;;;;;;6.75;4.65;;;;;;;;;;5103119;28;20027;-66
2021/04/17 12:56:11;;;;;;;7.72;3.80;;;;;;;;;;5103527;28;20031;-65
2021/04/17 12:58:39;;;;;;;4.63;3.80;;;;;;;;;;5090066;28;20025;-64
2021/04/17 13:01:06;;;;;;;16.55;4.47;;;;;;;;;;5097811;28;20135;-65
2021/04/17 13:03:33;;;;;;;6.53;4.50;;;;;;;;;;5095607;28;20044;-65
2021/04/17 13:05:59;;;;;;;10.48;4.30;;;;;;;;;;5092655;28;20028;-67
2021/04/17 13:08:27;;;;;;;7.32;4.10;;;;;;;;;;5103715;28;20027;-67
2021/04/17 13:10:53;;;;;;;4.63;3.78;;;;;;;;;;5100295;28;20026;-66
2021/04/17 13:13:19;;;;;;;3.97;3.58;;;;;;;;;;5102227;28;20035;-66
2021/04/17 13:15:46;;;;;;;5.00;3.92;;;;;;;;;;5096720;28;20111;-66
2021/04/17 13:18:13;;;;;;;4.68;3.60;;;;;;;;;;5100838;28;20191;-70
2021/04/17 13:20:39;;;;;;;5.25;3.65;;;;;;;;;;5093616;28;20163;-65
2021/04/17 13:23:06;;;;;;;4.60;3.47;;;;;;;;;;5103729;28;20070;-66
2021/04/17 13:25:32;;;;;;;4.38;3.40;;;;;;;;;;5098892;28;20126;-67
2021/04/17 13:27:58;;;;;;;5.78;3.13;;;;;;;;;;5100401;28;20038;-67
2021/04/17 13:30:24;;;;;;;8.52;3.88;;;;;;;;;;5094993;28;20123;-66
2021/04/17 13:32:51;;;;;;;7.53;3.80;;;;;;;;;;5082367;28;20068;-66
2021/04/17 13:35:18;;;;;;;4.57;3.70;;;;;;;;;;5098306;28;20084;-65
2021/04/17 13:37:44;;;;;;;7.38;3.50;;;;;;;;;;5090274;28;20028;-64
2021/04/17 13:40:10;;;;;;;5.65;3.55;;;;;;;;;;5101413;28;20024;-66
2021/04/17 13:42:36;;;;;;;4.70;3.42;;;;;;;;;;5103476;28;20031;-65
2021/04/17 13:45:04;;;;;;;4.10;3.50;;;;;;;;;;5097147;28;20031;-65
2021/04/17 13:47:30;;;;;;;4.03;3.63;;;;;;;;;;5093560;28;20024;-66
2021/04/17 13:49:56;;;;;;;4.32;3.72;;;;;;;;;;5103171;28;20489;-67
2021/04/17 13:52:22;;;;;;;4.45;4.00;;;;;;;;;;5107050;28;20023;-65
2021/04/17 13:54:48;;;;;;;4.55;4.15;;;;;;;;;;5093198;28;20498;-65
2021/04/17 13:57:14;;;;;;;7.30;4.10;;;;;;;;;;5096430;28;20035;-64
2021/04/17 13:59:41;;;;;;;8.45;4.97;;;;;;;;;;5102047;28;20031;-65
2021/04/17 14:02:07;;;;;;;5.00;3.70;;;;;;;;;;5093346;28;20035;-64
2021/04/17 14:04:34;;;;;;;5.82;4.00;;;;;;;;;;5101201;28;20054;-65
2021/04/17 14:07:00;;;;;;;5.93;4.28;;;;;;;;;;5094475;28;20032;-64
2021/04/17 14:09:27;;;;;;;5.55;4.28;;;;;;;;;;5097209;28;20031;-64
2021/04/17 14:11:53;;;;;;;5.10;3.85;;;;;;;;;;5097582;28;20107;-64
2021/04/17 14:14:19;;;;;;;6.18;4.20;;;;;;;;;;5100675;28;20043;-64
2021/04/17 14:16:46;;;;;;;7.60;4.20;;;;;;;;;;5075915;28;20031;-66
2021/04/17 14:19:12;;;;;;;5.93;4.30;;;;;;;;;;5102233;28;20106;-64
2021/04/17 14:21:38;;;;;;;5.97;3.90;;;;;;;;;;5105219;28;20080;-65
2021/04/17 14:24:04;;;;;;;5.28;3.75;;;;;;;;;;5090779;28;20816;-66
2021/04/17 14:26:30;;;;;;;6.53;3.90;;;;;;;;;;5095905;28;20097;-65
2021/04/17 14:28:56;;;;;;;9.02;5.47;;;;;;;;;;5102607;28;20070;-65
2021/04/17 14:31:23;;;;;;;11.75;6.05;;;;;;;;;;5094789;28;20024;-66
2021/04/17 14:33:49;;;;;;;5.07;4.30;;;;;;;;;;5095632;28;20020;-66
2021/04/17 14:36:15;;;;;;;5.38;4.30;;;;;;;;;;5107710;28;20032;-65
2021/04/17 14:38:41;;;;;;;6.65;4.30;;;;;;;;;;5096675;28;20032;-64
2021/04/17 14:41:07;;;;;;;5.85;4.22;;;;;;;;;;5087596;28;20035;-66